Wetterstation Vordersexau
Wetterdaten: Woche 13.07.15 - 19.07.15 (KW29)
Datum Zeit Temp. A. Feuchte A. Luftdruck Regen Wind Richtung Taupunkt Windchill Windben
13.07.2015 00:00 19,1 C 60 % 1017,1 hPa 0,0 l/m 0,0 km/h SO 11,1 C 19,1 C 0,0 km/h
13.07.2015 01:00 18,9 C 63 % 1016,5 hPa 0,0 l/m 0,0 km/h NO 11,7 C 18,9 C 0,0 km/h
13.07.2015 02:00 18,4 C 65 % 1016,5 hPa 0,0 l/m 1,3 km/h NO 11,7 C 18,4 C 0,7 km/h
13.07.2015 03:00 17,6 C 69 % 1016,5 hPa 0,0 l/m 0,0 km/h NO 11,8 C 17,6 C 0,0 km/h
13.07.2015 04:00 17,8 C 71 % 1016,2 hPa 0,0 l/m 0,0 km/h NO 12,5 C 17,8 C 0,0 km/h
13.07.2015 05:00 17,0 C 74 % 1016,4 hPa 0,0 l/m 0,0 km/h NO 12,3 C 17,0 C 0,0 km/h
13.07.2015 06:00 17,3 C 75 % 1016,8 hPa 0,0 l/m 0,0 km/h NO 12,8 C 17,3 C 0,0 km/h
13.07.2015 07:00 18,3 C 74 % 1017,1 hPa 0,0 l/m 0,0 km/h SW 13,6 C 18,3 C 0,0 km/h
13.07.2015 08:00 20,9 C 68 % 1017,1 hPa 0,0 l/m 1,3 km/h N 14,8 C 20,9 C 0,7 km/h
13.07.2015 09:00 21,9 C 61 % 1017,4 hPa 0,0 l/m 5,2 km/h W-NW 14,0 C 21,9 C 2,9 km/h
13.07.2015 10:00 25,4 C 52 % 1017,2 hPa 0,0 l/m 3,9 km/h NW 14,8 C 25,4 C 2,2 km/h
13.07.2015 11:00 24,1 C 52 % 1017,5 hPa 0,0 l/m 0,0 km/h W 13,6 C 24,1 C 0,0 km/h
13.07.2015 12:00 27,5 C 47 % 1017,1 hPa 0,0 l/m 4,5 km/h NW 15,2 C 27,5 C 2,5 km/h
13.07.2015 13:00 27,6 C 45 % 1016,5 hPa 0,0 l/m 0,0 km/h NW 14,6 C 27,6 C 0,0 km/h
13.07.2015 14:00 26,6 C 45 % 1016,6 hPa 0,0 l/m 0,0 km/h S 13,7 C 26,6 C 0,0 km/h
13.07.2015 15:00 28,9 C 42 % 1016,5 hPa 0,0 l/m 7,8 km/h N-NW 14,7 C 28,7 C 4,3 km/h
13.07.2015 16:00 29,3 C 39 % 1016,0 hPa 0,0 l/m 3,2 km/h NW 13,9 C 29,3 C 1,8 km/h
13.07.2015 17:00 27,2 C 43 % 1016,3 hPa 0,0 l/m 0,0 km/h NO 13,5 C 27,2 C 0,0 km/h
13.07.2015 18:00 25,9 C 47 % 1015,9 hPa 0,0 l/m 0,0 km/h N-NO 13,7 C 25,9 C 0,0 km/h
13.07.2015 19:00 26,9 C 45 % 1015,9 hPa 0,0 l/m 11,7 km/h NO 13,9 C 26,0 C 6,5 km/h
13.07.2015 20:00 23,8 C 52 % 1016,2 hPa 0,0 l/m 0,0 km/h NO 13,3 C 23,8 C 0,0 km/h
13.07.2015 21:00 21,8 C 60 % 1016,1 hPa 0,0 l/m 0,0 km/h O-NO 13,7 C 21,8 C 0,0 km/h
13.07.2015 22:00 20,6 C 64 % 1016,1 hPa 0,0 l/m 0,0 km/h SO 13,5 C 20,6 C 0,0 km/h
13.07.2015 23:00 20,2 C 66 % 1016,4 hPa 0,0 l/m 0,0 km/h O-SO 13,6 C 20,2 C 0,0 km/h
14.07.2015 00:00 19,8 C 69 % 1016,5 hPa 0,0 l/m 0,0 km/h O-SO 13,9 C 19,8 C 0,0 km/h
14.07.2015 01:00 19,1 C 71 % 1016,5 hPa 0,0 l/m 0,0 km/h SO 13,7 C 19,1 C 0,0 km/h
14.07.2015 02:00 17,9 C 73 % 1016,6 hPa 0,0 l/m 0,0 km/h SO 13,0 C 17,9 C 0,0 km/h
14.07.2015 03:00 17,3 C 76 % 1016,3 hPa 0,0 l/m 0,0 km/h SO 13,0 C 17,3 C 0,0 km/h
14.07.2015 04:00 16,4 C 78 % 1016,3 hPa 0,0 l/m 0,0 km/h SO 12,6 C 16,4 C 0,0 km/h
14.07.2015 05:00 15,3 C 80 % 1016,3 hPa 0,0 l/m 0,0 km/h SO 11,9 C 15,3 C 0,0 km/h
14.07.2015 06:00 15,6 C 81 % 1016,6 hPa 0,0 l/m 0,0 km/h SO 12,3 C 15,6 C 0,0 km/h
14.07.2015 07:00 18,0 C 80 % 1016,6 hPa 0,0 l/m 0,0 km/h SO 14,5 C 18,0 C 0,0 km/h
14.07.2015 08:00 21,3 C 71 % 1016,6 hPa 0,0 l/m 0,0 km/h W 15,8 C 21,3 C 0,0 km/h
14.07.2015 09:00 27,5 C 52 % 1016,4 hPa 0,0 l/m 1,3 km/h W-SW 16,7 C 27,5 C 0,7 km/h
14.07.2015 10:00 27,4 C 52 % 1016,2 hPa 0,0 l/m 11,7 km/h W-NW 16,7 C 26,6 C 6,5 km/h
14.07.2015 11:00 28,5 C 46 % 1016,4 hPa 0,0 l/m 20,7 km/h NW 15,7 C 27,1 C 11,5 km/h
14.07.2015 12:00 29,9 C 42 % 1016,0 hPa 0,0 l/m 7,1 km/h W 15,6 C 29,8 C 4,0 km/h
14.07.2015 13:00 30,7 C 41 % 1015,9 hPa 0,0 l/m 8,4 km/h W-NW 15,9 C 30,6 C 4,7 km/h
14.07.2015 14:00 28,9 C 43 % 1015,7 hPa 0,0 l/m 0,0 km/h NW 15,0 C 28,9 C 0,0 km/h
14.07.2015 15:00 32,3 C 37 % 1015,6 hPa 0,0 l/m 0,0 km/h NW 15,7 C 32,3 C 0,0 km/h
14.07.2015 16:00 32,1 C 36 % 1015,5 hPa 0,0 l/m 26,6 km/h NO 15,1 C 31,8 C 14,8 km/h
14.07.2015 17:00 33,3 C 34 % 1015,8 hPa 0,0 l/m 0,0 km/h N-NO 15,3 C 33,3 C 0,0 km/h
14.07.2015 18:00 33,3 C 34 % 1015,7 hPa 0,0 l/m 0,0 km/h N-NO 15,3 C 33,3 C 0,0 km/h
14.07.2015 19:00 28,1 C 41 % 1015,8 hPa 0,0 l/m 7,8 km/h NO 13,6 C 27,9 C 4,3 km/h
14.07.2015 20:00 25,4 C 48 % 1016,2 hPa 0,0 l/m 0,0 km/h NO 13,6 C 25,4 C 0,0 km/h
14.07.2015 21:00 21,2 C 56 % 1017,1 hPa 0,0 l/m 0,0 km/h O-NO 12,1 C 21,2 C 0,0 km/h
14.07.2015 22:00 19,1 C 64 % 1017,5 hPa 0,0 l/m 0,0 km/h O-NO 12,1 C 19,1 C 0,0 km/h
14.07.2015 23:00 17,6 C 71 % 1017,8 hPa 0,0 l/m 0,0 km/h O-NO 12,3 C 17,6 C 0,0 km/h
15.07.2015 00:00 16,8 C 73 % 1017,9 hPa 0,0 l/m 0,0 km/h O-NO 11,9 C 16,8 C 0,0 km/h
15.07.2015 01:00 16,1 C 77 % 1018,0 hPa 0,0 l/m 0,0 km/h O-NO 12,1 C 16,1 C 0,0 km/h
15.07.2015 02:00 15,2 C 79 % 1017,8 hPa 0,0 l/m 0,0 km/h O-NO 11,6 C 15,2 C 0,0 km/h
15.07.2015 03:00 14,8 C 80 % 1017,8 hPa 0,0 l/m 0,0 km/h O-NO 11,4 C 14,8 C 0,0 km/h
15.07.2015 04:00 14,4 C 81 % 1017,8 hPa 0,0 l/m 0,0 km/h O 11,2 C 14,4 C 0,0 km/h
15.07.2015 05:00 14,3 C 82 % 1017,8 hPa 0,0 l/m 0,0 km/h O 11,3 C 14,3 C 0,0 km/h
15.07.2015 06:00 15,2 C 83 % 1018,0 hPa 0,0 l/m 0,0 km/h SO 12,3 C 15,2 C 0,0 km/h
15.07.2015 07:00 20,8 C 80 % 1018,1 hPa 0,0 l/m 0,0 km/h W-NW 17,2 C 20,8 C 0,0 km/h
15.07.2015 08:00 27,6 C 52 % 1018,0 hPa 0,0 l/m 1,3 km/h W-NW 16,8 C 27,6 C 0,7 km/h
15.07.2015 09:00 30,3 C 45 % 1017,8 hPa 0,0 l/m 3,2 km/h W-NW 17,0 C 30,3 C 1,8 km/h
15.07.2015 10:00 30,3 C 45 % 1017,6 hPa 0,0 l/m 2,6 km/h W-NW 17,0 C 30,3 C 1,4 km/h
15.07.2015 11:00 31,1 C 42 % 1017,2 hPa 0,0 l/m 7,1 km/h N-NW 16,6 C 31,1 C 4,0 km/h
15.07.2015 12:00 31,1 C 41 % 1016,9 hPa 0,0 l/m 3,9 km/h W 16,3 C 31,1 C 2,2 km/h
15.07.2015 13:00 32,4 C 36 % 1016,2 hPa 0,0 l/m 14,3 km/h NO 15,4 C 32,3 C 7,9 km/h
15.07.2015 14:00 33,9 C 33 % 1015,7 hPa 0,0 l/m 18,1 km/h N-NO 15,3 C 33,9 C 10,1 km/h
15.07.2015 15:00 33,3 C 31 % 1015,4 hPa 0,0 l/m 0,0 km/h NO 13,8 C 33,3 C 0,0 km/h
15.07.2015 16:00 35,4 C 29 % 1015,1 hPa 0,0 l/m 0,0 km/h N-NW 14,6 C 35,4 C 0,0 km/h
15.07.2015 17:00 39,5 C 24 % 1014,7 hPa 0,0 l/m 5,8 km/h W-NW 15,1 C 39,5 C 3,2 km/h
15.07.2015 18:00 37,6 C 28 % 1014,4 hPa 0,0 l/m 3,9 km/h N-NW 15,9 C 37,6 C 2,2 km/h
15.07.2015 19:00 31,0 C 36 % 1014,3 hPa 0,0 l/m 0,0 km/h N-NO 14,2 C 31,0 C 0,0 km/h
15.07.2015 20:00 27,8 C 44 % 1014,6 hPa 0,0 l/m 0,0 km/h N-NO 14,4 C 27,8 C 0,0 km/h
15.07.2015 21:00 23,3 C 54 % 1015,0 hPa 0,0 l/m 0,0 km/h N-NO 13,5 C 23,3 C 0,0 km/h
15.07.2015 22:00 21,1 C 62 % 1015,3 hPa 0,0 l/m 0,0 km/h S-SO 13,5 C 21,1 C 0,0 km/h
15.07.2015 23:00 20,0 C 66 % 1015,5 hPa 0,0 l/m 0,0 km/h S-SO 13,4 C 20,0 C 0,0 km/h
16.07.2015 00:00 19,5 C 69 % 1015,4 hPa 0,0 l/m 0,0 km/h S-SO 13,7 C 19,5 C 0,0 km/h
16.07.2015 01:00 19,3 C 69 % 1015,1 hPa 0,0 l/m 11,0 km/h N-NO 13,5 C 17,5 C 6,1 km/h
16.07.2015 02:00 18,5 C 69 % 1015,2 hPa 0,0 l/m 0,0 km/h O 12,7 C 18,5 C 0,0 km/h
16.07.2015 03:00 17,3 C 75 % 1015,4 hPa 0,0 l/m 0,0 km/h O-NO 12,8 C 17,3 C 0,0 km/h
16.07.2015 04:00 16,1 C 76 % 1015,2 hPa 0,0 l/m 0,0 km/h O 11,9 C 16,1 C 0,0 km/h
16.07.2015 05:00 15,5 C 80 % 1015,3 hPa 0,0 l/m 0,0 km/h O-NO 12,1 C 15,5 C 0,0 km/h
16.07.2015 06:00 16,5 C 81 % 1015,8 hPa 0,0 l/m 0,0 km/h O 13,2 C 16,5 C 0,0 km/h
16.07.2015 07:00 23,1 C 75 % 1016,1 hPa 0,0 l/m 0,0 km/h W-NW 18,4 C 23,1 C 0,0 km/h
16.07.2015 08:00 29,2 C 51 % 1015,9 hPa 0,0 l/m 1,3 km/h W-NW 18,0 C 29,2 C 0,7 km/h
16.07.2015 09:00 31,5 C 45 % 1015,8 hPa 0,0 l/m 10,4 km/h N 18,1 C 31,3 C 5,8 km/h
16.07.2015 10:00 31,8 C 43 % 1015,7 hPa 0,0 l/m 0,0 km/h N-NO 17,6 C 31,8 C 0,0 km/h
16.07.2015 11:00 32,9 C 40 % 1015,4 hPa 0,0 l/m 0,0 km/h NW 17,5 C 32,9 C 0,0 km/h
16.07.2015 12:00 33,3 C 42 % 1014,8 hPa 0,0 l/m 7,8 km/h W-NW 18,6 C 33,3 C 4,3 km/h
16.07.2015 13:00 35,3 C 34 % 1014,3 hPa 0,0 l/m 5,2 km/h S-SW 17,0 C 35,3 C 2,9 km/h
16.07.2015 14:00 37,0 C 31 % 1013,6 hPa 0,0 l/m 2,6 km/h W-SW 17,0 C 37,0 C 1,4 km/h
16.07.2015 15:00 37,1 C 27 % 1013,4 hPa 0,0 l/m 11,7 km/h NW 14,9 C 37,1 C 6,5 km/h
16.07.2015 16:00 38,3 C 21 % 1013,1 hPa 0,0 l/m 21,4 km/h W-SW 12,1 C 38,3 C 11,9 km/h
16.07.2015 17:00 41,5 C 19 % 1012,7 hPa 0,0 l/m 2,6 km/h W-NW 13,1 C 41,5 C 1,4 km/h
16.07.2015 18:00 41,3 C 19 % 1012,3 hPa 0,0 l/m 0,0 km/h W-NW 13,0 C 41,3 C 0,0 km/h
16.07.2015 19:00 34,3 C 27 % 1012,3 hPa 0,0 l/m 0,0 km/h NW 12,6 C 34,3 C 0,0 km/h
16.07.2015 20:00 28,2 C 41 % 1012,2 hPa 0,0 l/m 0,0 km/h W-NW 13,7 C 28,2 C 0,0 km/h
16.07.2015 21:00 24,5 C 48 % 1012,8 hPa 0,0 l/m 0,0 km/h S-SO 12,8 C 24,5 C 0,0 km/h
16.07.2015 22:00 21,8 C 56 % 1013,2 hPa 0,0 l/m 0,0 km/h S 12,6 C 21,8 C 0,0 km/h
16.07.2015 23:00 21,3 C 57 % 1013,1 hPa 0,0 l/m 0,0 km/h S-SO 12,4 C 21,3 C 0,0 km/h
17.07.2015 00:00 20,5 C 59 % 1012,9 hPa 0,0 l/m 3,9 km/h SO 12,2 C 20,5 C 2,2 km/h
17.07.2015 01:00 19,9 C 61 % 1013,2 hPa 0,0 l/m 1,3 km/h NO 12,2 C 19,9 C 0,7 km/h
17.07.2015 02:00 18,5 C 65 % 1013,5 hPa 0,0 l/m 0,0 km/h O-NO 11,8 C 18,5 C 0,0 km/h
17.07.2015 03:00 17,9 C 65 % 1013,5 hPa 0,0 l/m 0,0 km/h S-SO 11,2 C 17,9 C 0,0 km/h
17.07.2015 04:00 17,9 C 69 % 1013,3 hPa 0,0 l/m 1,9 km/h N-NO 12,1 C 17,9 C 1,1 km/h
17.07.2015 05:00 16,9 C 72 % 1013,4 hPa 0,0 l/m 0,0 km/h SO 11,8 C 16,9 C 0,0 km/h
17.07.2015 06:00 18,3 C 70 % 1013,2 hPa 0,0 l/m 0,0 km/h S-SO 12,7 C 18,3 C 0,0 km/h
17.07.2015 07:00 23,2 C 63 % 1013,3 hPa 0,0 l/m 3,2 km/h S-SO 15,8 C 23,2 C 1,8 km/h
17.07.2015 08:00 30,5 C 47 % 1013,9 hPa 0,0 l/m 0,0 km/h W-SW 17,9 C 30,5 C 0,0 km/h
17.07.2015 09:00 35,8 C 36 % 1014,2 hPa 0,0 l/m 0,0 km/h NW 18,4 C 35,8 C 0,0 km/h
17.07.2015 10:00 34,7 C 33 % 1014,5 hPa 0,0 l/m 38,2 km/h W-SW 16,0 C 34,7 C 21,2 km/h
17.07.2015 11:00 35,8 C 32 % 1014,4 hPa 0,0 l/m 0,0 km/h S-SO 16,5 C 35,8 C 0,0 km/h
17.07.2015 12:00 36,8 C 30 % 1014,4 hPa 0,0 l/m 3,2 km/h SO 16,3 C 36,8 C 1,8 km/h
17.07.2015 13:00 38,8 C 28 % 1014,0 hPa 0,0 l/m 0,0 km/h S-SO 16,9 C 38,8 C 0,0 km/h
17.07.2015 14:00 41,1 C 23 % 1013,1 hPa 0,0 l/m 4,5 km/h W-NW 15,8 C 41,1 C 2,5 km/h
17.07.2015 15:00 38,9 C 25 % 1012,7 hPa 0,0 l/m 0,0 km/h N 15,3 C 38,9 C 0,0 km/h
17.07.2015 16:00 40,8 C 24 % 1012,1 hPa 0,0 l/m 0,0 km/h NW 16,2 C 40,8 C 0,0 km/h
17.07.2015 17:00 43,3 C 21 % 1011,8 hPa 0,0 l/m 14,3 km/h W-NW 16,2 C 43,3 C 7,9 km/h
17.07.2015 18:00 40,4 C 24 % 1011,4 hPa 0,0 l/m 0,0 km/h S-SW 15,9 C 40,4 C 0,0 km/h
17.07.2015 19:00 35,3 C 30 % 1011,3 hPa 0,0 l/m 0,0 km/h S-SO 15,0 C 35,3 C 0,0 km/h
17.07.2015 20:00 30,5 C 41 % 1011,5 hPa 0,0 l/m 0,0 km/h S-SO 15,7 C 30,5 C 0,0 km/h
17.07.2015 21:00 29,0 C 42 % 1012,4 hPa 0,0 l/m 3,2 km/h SO 14,8 C 29,0 C 1,8 km/h
17.07.2015 22:00 27,9 C 44 % 1012,9 hPa 0,0 l/m 11,7 km/h O-NO 14,5 C 27,2 C 6,5 km/h
17.07.2015 23:00 27,3 C 43 % 1012,7 hPa 0,0 l/m 0,0 km/h NO 13,6 C 27,3 C 0,0 km/h
18.07.2015 00:00 25,5 C 48 % 1013,4 hPa 0,0 l/m 0,0 km/h NO 13,7 C 25,5 C 0,0 km/h
18.07.2015 01:00 24,8 C 53 % 1013,3 hPa 0,0 l/m 0,6 km/h W-NW 14,6 C 24,8 C 0,4 km/h
18.07.2015 02:00 22,1 C 66 % 1014,5 hPa 0,4 l/m 0,0 km/h O-NO 15,4 C 22,1 C 0,0 km/h
18.07.2015 03:00 20,9 C 74 % 1014,6 hPa 0,0 l/m 0,0 km/h O-SO 16,1 C 20,9 C 0,0 km/h
18.07.2015 04:00 19,5 C 78 % 1014,6 hPa 0,0 l/m 0,0 km/h O-SO 15,6 C 19,5 C 0,0 km/h
18.07.2015 05:00 18,4 C 79 % 1015,3 hPa 0,0 l/m 0,0 km/h O-SO 14,7 C 18,4 C 0,0 km/h
18.07.2015 06:00 19,3 C 80 % 1015,8 hPa 0,0 l/m 0,0 km/h S-SO 15,8 C 19,3 C 0,0 km/h
18.07.2015 07:00 24,0 C 77 % 1016,0 hPa 0,0 l/m 0,0 km/h SO 19,7 C 24,0 C 0,0 km/h
18.07.2015 08:00 26,9 C 60 % 1016,4 hPa 0,0 l/m 0,0 km/h W-SW 18,5 C 26,9 C 0,0 km/h
18.07.2015 09:00 23,8 C 71 % 1017,8 hPa 0,0 l/m 12,3 km/h S-SO 18,2 C 22,3 C 6,8 km/h
18.07.2015 10:00 20,5 C 80 % 1017,8 hPa 0,4 l/m 4,5 km/h S-SO 16,9 C 20,5 C 2,5 km/h
18.07.2015 11:00 21,8 C 81 % 1018,0 hPa 0,0 l/m 0,0 km/h S-SO 18,4 C 21,8 C 0,0 km/h
18.07.2015 12:00 23,7 C 76 % 1016,6 hPa 0,4 l/m 7,1 km/h S-SW 19,2 C 23,5 C 4,0 km/h
18.07.2015 13:00 27,6 C 64 % 1016,1 hPa 0,0 l/m 15,6 km/h W-SW 20,2 C 26,4 C 8,6 km/h
18.07.2015 14:00 30,3 C 52 % 1016,1 hPa 0,0 l/m 1,9 km/h S 19,3 C 30,3 C 1,1 km/h
18.07.2015 15:00 31,5 C 46 % 1015,0 hPa 0,0 l/m 0,0 km/h W 18,4 C 31,5 C 0,0 km/h
18.07.2015 16:00 34,9 C 38 % 1013,8 hPa 0,0 l/m 1,3 km/h W 18,4 C 34,9 C 0,7 km/h
18.07.2015 17:00 36,6 C 31 % 1013,8 hPa 0,0 l/m 2,6 km/h NO 16,7 C 36,6 C 1,4 km/h
18.07.2015 18:00 34,1 C 35 % 1013,3 hPa 0,0 l/m 0,0 km/h N-NO 16,4 C 34,1 C 0,0 km/h
18.07.2015 19:00 30,8 C 40 % 1012,8 hPa 0,0 l/m 0,0 km/h SO 15,6 C 30,8 C 0,0 km/h
18.07.2015 20:00 25,1 C 56 % 1012,8 hPa 0,0 l/m 0,0 km/h SO 15,7 C 25,1 C 0,0 km/h
18.07.2015 21:00 22,4 C 63 % 1012,9 hPa 0,0 l/m 0,0 km/h S-SO 15,0 C 22,4 C 0,0 km/h
18.07.2015 22:00 21,2 C 67 % 1012,4 hPa 0,0 l/m 0,0 km/h SO 14,8 C 21,2 C 0,0 km/h
18.07.2015 23:00 21,2 C 68 % 1012,0 hPa 0,0 l/m 0,0 km/h SO 15,1 C 21,2 C 0,0 km/h
19.07.2015 00:00 21,2 C 69 % 1011,9 hPa 0,0 l/m 1,3 km/h SO 15,3 C 21,2 C 0,7 km/h
19.07.2015 01:00 21,3 C 69 % 1011,2 hPa 0,0 l/m 0,0 km/h O-SO 15,4 C 21,3 C 0,0 km/h
19.07.2015 02:00 19,8 C 73 % 1009,6 hPa 0,0 l/m 0,0 km/h O-SO 14,8 C 19,8 C 0,0 km/h
19.07.2015 03:00 18,1 C 76 % 1009,7 hPa 0,0 l/m 0,0 km/h O 13,8 C 18,1 C 0,0 km/h
19.07.2015 04:00 17,4 C 80 % 1009,9 hPa 0,0 l/m 0,0 km/h O-SO 13,9 C 17,4 C 0,0 km/h
19.07.2015 05:00 17,1 C 81 % 1009,5 hPa 0,0 l/m 0,0 km/h S 13,8 C 17,1 C 0,0 km/h
19.07.2015 06:00 19,2 C 81 % 1010,1 hPa 0,0 l/m 0,0 km/h S-SW 15,9 C 19,2 C 0,0 km/h
19.07.2015 07:00 20,4 C 81 % 1011,8 hPa 0,4 l/m 10,4 km/h W-SW 17,0 C 19,0 C 5,8 km/h
19.07.2015 08:00 20,5 C 82 % 1010,7 hPa 0,4 l/m 0,0 km/h SW 17,3 C 20,5 C 0,0 km/h
19.07.2015 09:00 22,9 C 75 % 1010,8 hPa 0,0 l/m 7,8 km/h SW 18,2 C 22,5 C 4,3 km/h
19.07.2015 10:00 23,6 C 70 % 1010,9 hPa 0,0 l/m 6,5 km/h W 17,8 C 23,6 C 3,6 km/h
19.07.2015 11:00 26,4 C 63 % 1011,4 hPa 0,0 l/m 23,3 km/h W-SW 18,8 C 24,2 C 13,0 km/h
19.07.2015 12:00 28,6 C 54 % 1011,3 hPa 0,0 l/m 19,4 km/h S-SW 18,4 C 27,4 C 10,8 km/h
19.07.2015 13:00 27,3 C 55 % 1010,8 hPa 0,0 l/m 16,8 km/h W 17,4 C 25,9 C 9,4 km/h
19.07.2015 14:00 27,8 C 57 % 1010,8 hPa 0,0 l/m 10,4 km/h W 18,5 C 27,2 C 5,8 km/h
19.07.2015 15:00 29,4 C 53 % 1010,4 hPa 0,0 l/m 21,4 km/h W-SW 18,8 C 28,3 C 11,9 km/h
19.07.2015 16:00 31,3 C 46 % 1010,1 hPa 0,0 l/m 8,4 km/h SW 18,3 C 31,2 C 4,7 km/h
19.07.2015 17:00 31,5 C 44 % 1009,8 hPa 0,0 l/m 7,8 km/h W-SW 17,7 C 31,4 C 4,3 km/h
19.07.2015 18:00 30,3 C 45 % 1010,0 hPa 0,0 l/m 10,4 km/h W 17,0 C 30,0 C 5,8 km/h
19.07.2015 19:00 28,5 C 50 % 1010,1 hPa 0,0 l/m 2,6 km/h N-NO 17,0 C 28,5 C 1,4 km/h
19.07.2015 20:00 27,4 C 49 % 1010,9 hPa 0,0 l/m 4,5 km/h NW 15,7 C 27,4 C 2,5 km/h
19.07.2015 21:00 24,6 C 56 % 1011,7 hPa 0,0 l/m 3,9 km/h N-NO 15,2 C 24,6 C 2,2 km/h
19.07.2015 22:00 23,4 C 57 % 1012,7 hPa 0,0 l/m 0,0 km/h N-NO 14,4 C 23,4 C 0,0 km/h
19.07.2015 23:00 19,8 C 68 % 1013,0 hPa 0,0 l/m 0,0 km/h N-NO 13,7 C 19,8 C 0,0 km/h
Min-Datum _ 15.07.15 16.07.15 19.07.15 - 13.07.15 - 13.07.15 15.07.15 13.07.15
_ Min-Zeit 05:51 17:51 05:51 - 00:51 - 00:51 05:51 00:51
Minimum _ 14,3 C 19 % 1009,5 hPa - 0,0 km/h - 11,1 C 14,3 C 0,0 km/h
Max-Datum _ 17.07.15 15.07.15 15.07.15 18.07.15 17.07.15 - 18.07.15 17.07.15 17.07.15
_ Max-Zeit 17:51 06:51 07:51 02:51 10:51 - 13:51 17:51 10:51
Maximum _ 43,3 C 83 % 1018,1 hPa 0,4 l/m 38,2 km/h
W-SW
- 20,2 C 43,3 C 21,2 km/h
W-SW
Durchschnitt _ 25,6 C 55 % 1014,6 hPa #2,1 l/m 3,2 km/h SO 14,9 C 25,5 C 1,8 km/h
www.sexauwetter.de